createdAt,value
2019-02-06T00:00:51.771Z,0.90
2019-02-06T00:03:22.445Z,0.90
2019-02-06T00:05:51.888Z,0.90
2019-02-06T00:08:21.341Z,0.90
2019-02-06T00:10:50.732Z,0.80
2019-02-06T00:13:20.134Z,0.80
2019-02-06T00:15:49.928Z,0.90
2019-02-06T00:18:19.399Z,0.90
2019-02-06T00:20:49.035Z,0.90
2019-02-06T00:23:18.390Z,0.90
2019-02-06T00:25:48.421Z,0.90
2019-02-06T00:28:17.883Z,0.90
2019-02-06T00:30:48.663Z,0.90
2019-02-06T00:33:18.071Z,0.90
2019-02-06T00:35:47.437Z,0.90
2019-02-06T00:38:16.791Z,0.90
2019-02-06T00:40:46.160Z,0.90
2019-02-06T00:43:15.590Z,0.80
2019-02-06T00:45:45.865Z,0.80
2019-02-06T00:48:15.155Z,0.80
2019-02-06T00:50:44.817Z,0.80
2019-02-06T00:53:14.171Z,0.80
2019-02-06T00:55:43.528Z,0.80
2019-02-06T00:58:12.891Z,0.70
2019-02-06T01:00:42.767Z,0.70
2019-02-06T01:03:12.228Z,0.80
2019-02-06T01:05:41.586Z,0.80
2019-02-06T01:08:11.188Z,0.80
2019-02-06T01:10:40.562Z,0.80
2019-02-06T01:13:09.935Z,0.90
2019-02-06T01:15:39.613Z,0.90
2019-02-06T01:18:08.989Z,0.90
2019-02-06T01:20:40.100Z,0.90
2019-02-06T01:23:09.461Z,0.90
2019-02-06T01:25:38.839Z,0.90
2019-02-06T01:28:08.748Z,0.90
2019-02-06T01:30:49.310Z,0.90
2019-02-06T01:33:18.672Z,0.80
2019-02-06T01:35:49.990Z,0.80
2019-02-06T01:38:19.058Z,0.80
2019-02-06T01:40:48.452Z,0.80
2019-02-06T01:43:18.215Z,0.80
2019-02-06T01:45:47.922Z,0.80
2019-02-06T01:48:17.288Z,0.80
2019-02-06T01:50:46.631Z,0.80
2019-02-06T01:53:16.003Z,0.80
2019-02-06T01:55:45.365Z,0.80
2019-02-06T01:58:14.764Z,0.80
2019-02-06T02:00:44.103Z,0.80
2019-02-06T02:03:13.450Z,0.80
2019-02-06T02:05:42.821Z,0.90
2019-02-06T02:08:12.418Z,0.90
2019-02-06T02:10:41.825Z,0.90
2019-02-06T02:13:11.175Z,0.90
2019-02-06T02:15:41.724Z,0.90
2019-02-06T02:18:11.415Z,0.90
2019-02-06T02:20:40.815Z,1.00
2019-02-06T02:23:10.159Z,1.00
2019-02-06T02:25:39.507Z,1.00
2019-02-06T02:28:08.900Z,1.00
2019-02-06T02:30:45.349Z,1.00
2019-02-06T02:33:14.742Z,1.00
2019-02-06T02:35:44.210Z,1.00
2019-02-06T02:38:13.565Z,1.00
2019-02-06T02:40:42.968Z,1.00
2019-02-06T02:43:12.721Z,1.00
2019-02-06T02:45:42.090Z,0.90
2019-02-06T02:48:11.439Z,1.00
2019-02-06T02:50:40.900Z,1.00
2019-02-06T02:53:10.385Z,0.90
2019-02-06T02:55:39.738Z,0.90
2019-02-06T02:58:09.361Z,0.90
2019-02-06T03:01:06.947Z,0.90
2019-02-06T03:03:43.172Z,0.90
2019-02-06T03:06:12.955Z,1.00
2019-02-06T03:08:42.317Z,1.00
2019-02-06T03:11:12.435Z,1.00
2019-02-06T03:13:41.784Z,1.00
2019-02-06T03:16:11.151Z,1.00
2019-02-06T03:18:40.497Z,1.00
2019-02-06T03:21:10.149Z,1.00
2019-02-06T03:23:39.735Z,1.00
2019-02-06T03:26:09.092Z,1.10
2019-02-06T03:28:38.512Z,1.00
2019-02-06T03:31:07.862Z,1.00
2019-02-06T03:33:37.228Z,1.00
2019-02-06T03:36:06.934Z,1.00
2019-02-06T03:38:36.285Z,1.00
2019-02-06T03:41:06.067Z,1.00
2019-02-06T03:43:35.458Z,1.00
2019-02-06T03:46:05.225Z,0.90
2019-02-06T03:48:34.577Z,1.00
2019-02-06T03:51:04.378Z,1.00
2019-02-06T03:53:33.731Z,1.00
2019-02-06T03:56:03.351Z,1.00
2019-02-06T03:58:32.716Z,1.00
2019-02-06T04:01:02.259Z,1.00
2019-02-06T04:03:32.177Z,1.00
2019-02-06T04:06:02.017Z,1.00
2019-02-06T04:08:31.434Z,1.00
2019-02-06T04:11:00.836Z,1.00
2019-02-06T04:13:31.039Z,1.00
2019-02-06T04:16:00.414Z,1.00
2019-02-06T04:18:29.784Z,1.00
2019-02-06T04:20:59.350Z,1.10
2019-02-06T04:23:28.722Z,1.10
2019-02-06T04:25:58.097Z,1.00
2019-02-06T04:28:27.439Z,1.10
2019-02-06T04:30:56.816Z,1.00
2019-02-06T04:33:26.200Z,1.10
2019-02-06T04:35:55.984Z,1.00
2019-02-06T04:38:25.325Z,1.10
2019-02-06T04:40:54.710Z,1.00
2019-02-06T04:43:24.075Z,1.00
2019-02-06T04:45:53.428Z,1.10
2019-02-06T04:48:23.253Z,1.20
2019-02-06T04:50:53.004Z,1.10
2019-02-06T04:53:22.365Z,1.20
2019-02-06T04:55:51.769Z,1.20
2019-02-06T04:58:21.113Z,1.20
2019-02-06T05:00:50.394Z,1.20
2019-02-06T05:03:19.752Z,1.30
2019-02-06T05:05:49.441Z,1.20
2019-02-06T05:08:18.808Z,1.30
2019-02-06T05:10:48.153Z,1.20
2019-02-06T05:13:18.351Z,1.30
2019-02-06T05:15:47.700Z,1.20
2019-02-06T05:18:17.050Z,1.30
2019-02-06T05:20:46.363Z,1.30
2019-02-06T05:23:15.730Z,1.20
2019-02-06T05:25:45.064Z,1.30
2019-02-06T05:28:14.431Z,1.30
2019-02-06T05:30:43.800Z,1.30
2019-02-06T05:33:13.160Z,1.30
2019-02-06T05:35:42.622Z,1.40
2019-02-06T05:38:11.960Z,1.30
2019-02-06T05:40:41.232Z,1.40
2019-02-06T05:43:10.592Z,1.30
2019-02-06T05:45:39.947Z,1.40
2019-02-06T05:48:09.312Z,1.40
2019-02-06T05:50:38.674Z,1.40
2019-02-06T05:53:08.994Z,1.40
2019-02-06T05:55:38.351Z,1.40
2019-02-06T05:58:07.703Z,1.30
2019-02-06T06:00:42.089Z,1.40
2019-02-06T06:03:11.425Z,1.40
2019-02-06T06:05:40.782Z,1.40
2019-02-06T06:08:10.664Z,1.30
2019-02-06T06:10:40.043Z,1.30
2019-02-06T06:13:09.373Z,1.30
2019-02-06T06:15:38.760Z,1.30
2019-02-06T06:18:08.107Z,1.30
2019-02-06T06:20:37.459Z,1.30
2019-02-06T06:23:06.938Z,1.20
2019-02-06T06:25:36.318Z,1.30
2019-02-06T06:28:05.735Z,1.30
2019-02-06T06:30:35.022Z,1.30
2019-02-06T06:33:04.378Z,1.30
2019-02-06T06:35:33.723Z,1.30
2019-02-06T06:38:03.099Z,1.40
2019-02-06T06:40:32.470Z,1.40
2019-02-06T06:43:01.814Z,1.40
2019-02-06T06:45:31.165Z,1.40
2019-02-06T06:48:00.512Z,1.40
2019-02-06T06:50:29.873Z,1.40
2019-02-06T06:52:59.450Z,1.40
2019-02-06T06:55:30.088Z,1.50
2019-02-06T06:57:59.401Z,1.40
2019-02-06T07:00:30.236Z,1.40
2019-02-06T07:03:00.327Z,1.50
2019-02-06T07:05:32.469Z,1.50
2019-02-06T07:08:11.130Z,1.50
2019-02-06T07:10:33.479Z,1.50
2019-02-06T07:13:02.818Z,1.50
2019-02-06T07:15:34.067Z,1.50
2019-02-06T07:18:03.434Z,1.60
2019-02-06T07:20:33.281Z,1.60
2019-02-06T07:23:03.077Z,1.60
2019-02-06T07:25:32.431Z,1.60
2019-02-06T07:28:01.726Z,1.70
2019-02-06T07:30:33.214Z,1.70
2019-02-06T07:33:02.867Z,1.70
2019-02-06T07:35:32.210Z,1.70
2019-02-06T07:38:02.299Z,1.80
2019-02-06T07:40:31.689Z,1.80
2019-02-06T07:43:01.059Z,1.80
2019-02-06T07:45:30.756Z,1.80
2019-02-06T07:48:00.123Z,1.80
2019-02-06T07:50:31.540Z,1.90
2019-02-06T07:53:01.054Z,1.90
2019-02-06T07:55:30.642Z,1.90
2019-02-06T07:58:00.031Z,2.00
2019-02-06T08:00:29.444Z,2.00
2019-02-06T08:02:59.398Z,2.00
2019-02-06T08:05:28.859Z,2.00
2019-02-06T08:07:58.572Z,2.00
2019-02-06T08:10:34.865Z,2.10
2019-02-06T08:13:05.372Z,2.10
2019-02-06T08:15:34.756Z,2.10
2019-02-06T08:18:04.259Z,2.20
2019-02-06T08:20:33.916Z,2.20
2019-02-06T08:23:03.319Z,2.20
2019-02-06T08:25:32.714Z,2.20
2019-02-06T08:28:02.105Z,2.20
2019-02-06T08:30:33.807Z,2.20
2019-02-06T08:33:04.723Z,2.20
2019-02-06T08:35:34.884Z,2.20
2019-02-06T08:38:04.431Z,2.30
2019-02-06T08:40:33.822Z,2.30
2019-02-06T08:43:03.193Z,2.30
2019-02-06T08:45:32.551Z,2.40
2019-02-06T08:50:29.908Z,2.50
2019-02-06T08:52:59.567Z,2.50
2019-02-06T08:55:30.067Z,2.60
2019-02-06T08:57:59.665Z,2.60
2019-02-06T09:00:34.705Z,2.60
2019-02-06T09:03:04.756Z,2.60
2019-02-06T09:05:34.094Z,2.70
2019-02-06T09:08:03.476Z,2.70
2019-02-06T09:10:33.007Z,2.80
2019-02-06T09:13:03.780Z,2.80
2019-02-06T09:15:33.084Z,2.80
2019-02-06T09:18:02.440Z,2.80
2019-02-06T09:20:32.285Z,2.80
2019-02-06T09:23:02.141Z,2.80
2019-02-06T09:25:31.520Z,2.80
2019-02-06T09:28:00.945Z,2.80
2019-02-06T09:30:31.875Z,2.90
2019-02-06T09:33:01.483Z,2.90
2019-02-06T09:35:30.927Z,2.90
2019-02-06T09:38:00.272Z,3.00
2019-02-06T09:40:31.012Z,3.00
2019-02-06T09:43:00.848Z,2.90
2019-02-06T09:45:30.277Z,3.00
2019-02-06T09:47:59.631Z,3.00
2019-02-06T09:50:31.627Z,3.00
2019-02-06T09:53:00.912Z,3.10
2019-02-06T09:55:31.069Z,3.10
2019-02-06T09:58:00.461Z,3.10
2019-02-06T10:00:32.453Z,3.20
2019-02-06T10:03:02.216Z,3.20
2019-02-06T10:05:31.871Z,3.30
2019-02-06T10:08:01.234Z,3.40
2019-02-06T10:10:32.105Z,3.40
2019-02-06T10:13:01.481Z,3.40
2019-02-06T10:15:33.949Z,3.50
2019-02-06T10:18:03.743Z,3.60
2019-02-06T10:20:38.387Z,3.70
2019-02-06T10:23:07.907Z,3.80
2019-02-06T10:25:37.780Z,3.70
2019-02-06T10:28:07.252Z,3.70
2019-02-06T10:30:39.067Z,3.80
2019-02-06T10:33:08.427Z,3.80
2019-02-06T10:35:37.780Z,3.90
2019-02-06T10:38:07.383Z,4.00
2019-02-06T10:40:37.944Z,4.00
2019-02-06T10:43:07.328Z,4.00
2019-02-06T10:45:37.237Z,4.00
2019-02-06T10:48:06.979Z,4.00
2019-02-06T10:50:39.105Z,4.00
2019-02-06T10:53:09.271Z,4.00
2019-02-06T10:55:38.730Z,4.10
2019-02-06T10:58:08.223Z,4.20
2019-02-06T11:00:55.624Z,4.20
2019-02-06T11:03:25.051Z,4.20
2019-02-06T11:05:54.788Z,4.20
2019-02-06T11:08:24.491Z,4.20
2019-02-06T11:10:54.073Z,4.20
2019-02-06T11:13:24.131Z,4.10
2019-02-06T11:15:53.527Z,4.20
2019-02-06T11:18:23.023Z,4.20
2019-02-06T11:20:52.381Z,4.20
2019-02-06T11:23:21.809Z,4.40
2019-02-06T11:25:51.701Z,4.40
2019-02-06T11:28:21.154Z,4.50
2019-02-06T11:30:50.513Z,4.50
2019-02-06T11:33:19.913Z,4.50
2019-02-06T11:35:49.260Z,4.60
2019-02-06T11:38:18.645Z,4.60
2019-02-06T11:40:48.041Z,4.60
2019-02-06T11:43:17.500Z,4.70
2019-02-06T11:45:46.927Z,4.70
2019-02-06T11:48:16.330Z,4.80
2019-02-06T11:50:45.952Z,4.70
2019-02-06T11:53:20.763Z,4.70
2019-02-06T11:55:50.646Z,4.80
2019-02-06T11:58:20.000Z,4.70
2019-02-06T12:01:14.048Z,4.70
2019-02-06T12:03:43.439Z,4.70
2019-02-06T12:06:13.217Z,4.90
2019-02-06T12:08:42.759Z,4.90
2019-02-06T12:11:12.742Z,4.90
2019-02-06T12:13:42.564Z,4.80
2019-02-06T12:16:13.053Z,4.80
2019-02-06T12:18:42.441Z,4.80
2019-02-06T12:21:12.189Z,4.80
2019-02-06T12:23:42.103Z,4.80
2019-02-06T12:26:12.937Z,4.80
2019-02-06T12:28:42.310Z,4.80
2019-02-06T12:31:11.716Z,4.70
2019-02-06T12:33:41.110Z,4.70
2019-02-06T12:36:10.926Z,4.70
2019-02-06T12:38:53.203Z,4.80
2019-02-06T12:41:14.465Z,4.90
2019-02-06T12:43:43.869Z,5.10
2019-02-06T12:46:13.433Z,5.20
2019-02-06T12:48:42.822Z,5.80
2019-02-06T12:51:12.215Z,5.70
2019-02-06T12:53:41.880Z,6.00
2019-02-06T12:56:11.304Z,5.90
2019-02-06T12:58:40.659Z,5.80
2019-02-06T13:01:11.118Z,5.70
2019-02-06T13:03:40.504Z,5.60
2019-02-06T13:06:11.166Z,5.80
2019-02-06T13:08:41.390Z,5.80
2019-02-06T13:11:11.314Z,5.80
2019-02-06T13:13:41.000Z,5.60
2019-02-06T13:16:11.611Z,5.50
2019-02-06T13:18:40.914Z,5.50
2019-02-06T13:21:10.300Z,5.40
2019-02-06T13:23:39.971Z,5.50
2019-02-06T13:26:09.942Z,5.40
2019-02-06T13:28:39.423Z,5.30
2019-02-06T13:31:08.850Z,5.30
2019-02-06T13:33:38.230Z,5.20
2019-02-06T13:36:10.771Z,5.20
2019-02-06T13:38:40.209Z,5.20
2019-02-06T13:41:09.600Z,5.10
2019-02-06T13:43:39.036Z,5.10
2019-02-06T13:46:08.947Z,5.10
2019-02-06T13:48:39.429Z,5.10
2019-02-06T13:51:16.538Z,5.00
2019-02-06T13:53:42.485Z,5.10
2019-02-06T13:56:12.784Z,5.10
2019-02-06T13:58:42.145Z,5.10
2019-02-06T14:01:11.534Z,5.00
2019-02-06T14:03:40.946Z,5.00
2019-02-06T14:06:11.620Z,4.90
2019-02-06T14:08:41.390Z,4.80
2019-02-06T14:11:10.772Z,4.70
2019-02-06T14:13:40.218Z,4.60
2019-02-06T14:16:10.661Z,4.50
2019-02-06T14:18:40.118Z,4.40
2019-02-06T14:21:09.768Z,4.40
2019-02-06T14:24:23.083Z,4.40
2019-02-06T14:27:17.672Z,4.30
2019-02-06T14:30:39.360Z,4.30
2019-02-06T14:33:59.075Z,4.30
2019-02-06T14:36:54.164Z,4.30
2019-02-06T14:39:36.896Z,4.40
2019-02-06T14:42:47.793Z,4.60
2019-02-06T14:46:00.801Z,4.80
2019-02-06T14:49:17.388Z,4.80
2019-02-06T14:52:17.012Z,4.70
2019-02-06T14:55:21.233Z,4.70
2019-02-06T14:58:46.275Z,4.70
2019-02-06T15:02:00.271Z,4.60
2019-02-06T15:04:57.734Z,4.60
2019-02-06T15:08:06.949Z,4.60
2019-02-06T15:10:50.507Z,4.50
2019-02-06T15:14:15.414Z,4.40
2019-02-06T15:17:23.059Z,4.30
2019-02-06T15:20:48.904Z,4.20
2019-02-06T15:23:36.804Z,4.10
2019-02-06T15:26:24.536Z,4.00
2019-02-06T15:29:34.792Z,3.90
2019-02-06T15:32:30.203Z,3.80
2019-02-06T15:35:39.671Z,3.70
2019-02-06T15:38:33.829Z,3.60
2019-02-06T15:41:31.458Z,3.50
2019-02-06T15:44:25.851Z,3.50
2019-02-06T15:47:35.414Z,3.40
2019-02-06T15:50:34.570Z,3.50
2019-02-06T15:53:34.840Z,3.50
2019-02-06T15:56:52.293Z,3.30
2019-02-06T16:00:05.759Z,3.20
2019-02-06T16:02:55.266Z,3.10
2019-02-06T16:06:12.521Z,3.00
2019-02-06T16:09:17.821Z,2.90
2019-02-06T16:12:11.290Z,2.90
2019-02-06T16:14:51.864Z,3.00
2019-02-06T16:18:11.750Z,2.90
2019-02-06T16:21:21.844Z,2.80
2019-02-06T16:24:13.602Z,2.70
2019-02-06T16:27:29.652Z,2.60
2019-02-06T16:30:37.605Z,2.60
2019-02-06T16:33:48.060Z,2.50
2019-02-06T16:36:53.308Z,2.50
2019-02-06T16:40:05.209Z,2.30
2019-02-06T16:43:21.442Z,2.30
2019-02-06T16:46:33.444Z,2.10
2019-02-06T16:49:22.469Z,2.00
2019-02-06T16:52:17.034Z,1.60
2019-02-06T16:55:37.057Z,1.40
2019-02-06T16:58:29.729Z,1.40
2019-02-06T17:01:52.266Z,1.50
2019-02-06T17:04:58.677Z,1.40
2019-02-06T17:08:15.989Z,1.30
2019-02-06T17:11:17.863Z,1.30
2019-02-06T17:14:34.363Z,1.30
2019-02-06T17:17:38.566Z,1.20
2019-02-06T17:20:43.241Z,1.20
2019-02-06T17:23:46.895Z,1.30
2019-02-06T17:26:41.108Z,1.30
2019-02-06T17:29:41.080Z,1.30
2019-02-06T17:32:46.235Z,1.30
2019-02-06T17:35:27.887Z,1.40
2019-02-06T17:38:28.006Z,1.30
2019-02-06T17:41:28.149Z,1.30
2019-02-06T17:44:37.186Z,1.20
2019-02-06T17:47:51.166Z,1.00
2019-02-06T17:51:07.866Z,0.80
2019-02-06T17:53:46.488Z,0.70
2019-02-06T17:56:17.179Z,0.40
2019-02-06T17:58:46.627Z,0.30
2019-02-06T18:01:45.865Z,0.30
2019-02-06T18:04:26.942Z,0.40
2019-02-06T18:09:42.269Z,0.40
2019-02-06T18:12:11.668Z,0.50
2019-02-06T18:14:41.522Z,0.60
2019-02-06T18:17:11.112Z,0.70
2019-02-06T18:19:41.267Z,0.70
2019-02-06T18:22:11.098Z,0.70
2019-02-06T18:24:42.757Z,0.60
2019-02-06T18:27:13.547Z,0.50
2019-02-06T18:29:44.663Z,0.50
2019-02-06T18:32:15.122Z,0.50
2019-02-06T18:34:46.721Z,0.50
2019-02-06T18:37:16.223Z,0.50
2019-02-06T18:39:45.711Z,0.40
2019-02-06T18:42:15.188Z,0.40
2019-02-06T18:44:45.158Z,0.40
2019-02-06T18:47:14.592Z,0.30
2019-02-06T18:49:44.873Z,0.20
2019-02-06T18:52:20.307Z,0.20
2019-02-06T18:54:55.010Z,0.10
2019-02-06T18:57:24.881Z,0.20
2019-02-06T18:59:54.443Z,0.20
2019-02-06T19:02:23.955Z,0.10
2019-02-06T19:04:53.503Z,0.10
2019-02-06T19:07:23.839Z,0.10
2019-02-06T19:09:55.380Z,0.20
2019-02-06T19:12:26.893Z,0.20
2019-02-06T19:14:58.786Z,0.30
2019-02-06T19:17:27.418Z,0.30
2019-02-06T19:19:57.642Z,0.30
2019-02-06T19:22:27.448Z,0.30
2019-02-06T19:24:57.361Z,0.30
2019-02-06T19:27:27.911Z,0.40
2019-02-06T19:29:57.374Z,0.40
2019-02-06T19:32:27.992Z,0.40
2019-02-06T19:34:57.480Z,0.40
2019-02-06T19:37:27.282Z,0.40
2019-02-06T19:39:56.681Z,0.30
2019-02-06T19:42:26.046Z,0.30
2019-02-06T19:44:55.527Z,0.20
2019-02-06T19:47:28.607Z,0.10
2019-02-06T19:49:57.509Z,0.20
2019-02-06T19:52:28.138Z,0.10
2019-02-06T19:55:00.362Z,0.10
2019-02-06T19:57:31.510Z,0.10
2019-02-06T20:00:00.961Z,0.00
2019-02-06T20:02:30.934Z,0.00
2019-02-06T20:05:00.401Z,-0.10
2019-02-06T20:07:31.189Z,-0.20
2019-02-06T20:10:00.903Z,-0.20
2019-02-06T20:12:30.330Z,-0.20
2019-02-06T20:14:59.711Z,-0.30
2019-02-06T20:17:29.437Z,-0.30
2019-02-06T20:19:59.083Z,-0.30
2019-02-06T20:22:28.564Z,-0.40
2019-02-06T20:24:59.493Z,-0.60
2019-02-06T20:27:29.176Z,-0.60
2019-02-06T20:29:58.960Z,-0.60
2019-02-06T20:32:28.344Z,-0.60
2019-02-06T20:34:57.727Z,-0.60
2019-02-06T20:37:27.202Z,-0.50
2019-02-06T20:39:56.621Z,-0.60
2019-02-06T20:42:26.097Z,-0.70
2019-02-06T20:44:55.719Z,-0.70
2019-02-06T20:47:26.686Z,-0.70
2019-02-06T20:49:56.092Z,-0.70
2019-02-06T20:52:27.233Z,-0.80
2019-02-06T20:54:56.638Z,-0.70
2019-02-06T20:57:26.094Z,-0.70
2019-02-06T20:59:58.313Z,-0.70
2019-02-06T21:02:29.484Z,-0.70
2019-02-06T21:05:00.463Z,-0.70
2019-02-06T21:07:29.978Z,-0.60
2019-02-06T21:09:59.516Z,-0.60
2019-02-06T21:12:28.966Z,-0.60
2019-02-06T21:15:01.065Z,-0.70
2019-02-06T21:17:30.616Z,-0.90
2019-02-06T21:20:00.098Z,-0.90
2019-02-06T21:22:30.735Z,-0.90
2019-02-06T21:25:00.250Z,-1.00
2019-02-06T21:27:32.318Z,-0.90
2019-02-06T21:30:01.744Z,-0.90
2019-02-06T21:32:31.219Z,-0.90
2019-02-06T21:35:01.460Z,-0.90
2019-02-06T21:37:32.401Z,-0.90
2019-02-06T21:40:01.953Z,-0.90
2019-02-06T21:42:31.510Z,-0.90
2019-02-06T21:45:01.402Z,-1.00
2019-02-06T21:47:31.972Z,-1.00
2019-02-06T21:50:01.436Z,-1.10
2019-02-06T21:52:30.948Z,-1.10
2019-02-06T21:55:00.462Z,-1.10
2019-02-06T21:57:30.304Z,-1.10
2019-02-06T21:59:59.860Z,-1.10
2019-02-06T22:02:31.614Z,-1.10
2019-02-06T22:05:01.138Z,-1.10
2019-02-06T22:07:30.936Z,-1.10
2019-02-06T22:10:00.778Z,-1.10
2019-02-06T22:12:32.246Z,-1.10
2019-02-06T22:15:01.738Z,-1.10
2019-02-06T22:17:31.605Z,-1.00
2019-02-06T22:20:01.049Z,-1.00
2019-02-06T22:22:30.476Z,-1.00
2019-02-06T22:25:00.679Z,-1.00
2019-02-06T22:27:31.738Z,-0.90
2019-02-06T22:30:01.534Z,-0.90
2019-02-06T22:32:30.915Z,-0.90
2019-02-06T22:39:24.339Z,-0.90
2019-02-06T22:41:53.794Z,-0.90
2019-02-06T22:44:23.167Z,-0.90
2019-02-06T22:46:54.067Z,-0.90
2019-02-06T22:49:23.439Z,-0.90
2019-02-06T22:51:52.861Z,-0.90
2019-02-06T22:54:22.355Z,-0.90
2019-02-06T22:56:51.786Z,-0.90
2019-02-06T22:59:21.251Z,-0.90
2019-02-06T23:01:56.723Z,-0.90
2019-02-06T23:04:26.215Z,-0.90
2019-02-06T23:06:55.608Z,-0.90
2019-02-06T23:09:25.036Z,-0.90
2019-02-06T23:11:54.393Z,-0.90
2019-02-06T23:14:24.203Z,-0.80
2019-02-06T23:16:53.561Z,-0.80
2019-02-06T23:19:23.044Z,-0.80
2019-02-06T23:21:52.417Z,-0.80
2019-02-06T23:24:21.902Z,-0.80
2019-02-06T23:26:51.301Z,-0.80
2019-02-06T23:29:20.989Z,-0.80
2019-02-06T23:31:50.396Z,-0.80
2019-02-06T23:34:20.155Z,-0.80
2019-02-06T23:36:49.463Z,-0.80
2019-02-06T23:39:20.744Z,-0.80
2019-02-06T23:41:50.057Z,-0.80
2019-02-06T23:44:28.600Z,-0.80
2019-02-06T23:46:50.421Z,-0.70
2019-02-06T23:49:19.868Z,-0.80
2019-02-06T23:51:49.228Z,-0.80
2019-02-06T23:54:18.594Z,-0.70
2019-02-06T23:56:47.991Z,-0.70
2019-02-06T23:59:17.517Z,-0.80
